Time;durP1;ratioP1;P1;durP2;ratioP2;P2;SDS_P1;SDS_P2;PMS_P1;PMS_P2;Temp;Humidity;BMP_temperature;BMP_pressure;BME280_temperature;BME280_humidity;BME280_pressure;Samples;Min_cycle;Max_cycle;Signal;HPM_P1;HPM_P2
2023/01/14 00:01:05;;;;;;;20.90;3.80;;;8.60;99.90;;;;;;5043470;28;20661;-75
2023/01/14 00:03:31;;;;;;;20.05;3.08;;;8.60;99.90;;;;;;5035243;28;20032;-75
2023/01/14 00:05:58;;;;;;;19.20;3.05;;;8.50;99.90;;;;;;5033369;28;20029;-75
2023/01/14 00:08:25;;;;;;;24.27;3.70;;;8.50;99.90;;;;;;5044427;28;20033;-74
2023/01/14 00:10:50;;;;;;;25.00;3.53;;;8.50;99.90;;;;;;5053354;28;20487;-75
2023/01/14 00:13:16;;;;;;;17.52;3.13;;;8.50;99.90;;;;;;5052472;28;20023;-75
2023/01/14 00:15:57;;;;;;;24.80;3.55;;;8.50;99.90;;;;;;5053072;28;20104;-75
2023/01/14 00:18:23;;;;;;;20.40;3.42;;;8.60;99.90;;;;;;5040790;28;20029;-75
2023/01/14 00:20:59;;;;;;;26.00;3.45;;;8.50;99.90;;;;;;5053162;28;20028;-75
2023/01/14 00:23:26;;;;;;;19.40;3.33;;;8.50;99.90;;;;;;5050383;28;20495;-74
2023/01/14 00:25:51;;;;;;;24.65;3.47;;;8.50;99.90;;;;;;5051158;28;20017;-75
2023/01/14 00:28:17;;;;;;;23.10;3.70;;;8.50;99.90;;;;;;5049353;28;20401;-75
2023/01/14 00:30:43;;;;;;;19.90;4.00;;;8.50;99.90;;;;;;5050962;28;20437;-75
2023/01/14 00:33:09;;;;;;;22.02;3.85;;;8.50;99.90;;;;;;5047933;28;20043;-75
2023/01/14 00:35:34;;;;;;;25.42;3.50;;;8.40;99.90;;;;;;5052499;28;20476;-74
2023/01/14 00:38:00;;;;;;;25.38;3.55;;;8.40;99.90;;;;;;5052521;28;20466;-75
2023/01/14 00:40:25;;;;;;;24.10;3.85;;;8.40;99.90;;;;;;5051092;28;20032;-75
2023/01/14 00:42:51;;;;;;;31.08;3.72;;;8.40;99.90;;;;;;5052358;28;20083;-75
2023/01/14 00:45:17;;;;;;;27.02;3.67;;;8.40;99.90;;;;;;5052629;28;20064;-74
2023/01/14 00:47:42;;;;;;;25.25;3.58;;;8.40;99.90;;;;;;5050654;28;20119;-74
2023/01/14 00:50:09;;;;;;;23.20;3.80;;;8.40;99.90;;;;;;5046719;28;20024;-75
2023/01/14 00:52:34;;;;;;;22.25;3.20;;;8.30;99.90;;;;;;5044009;28;20021;-75
2023/01/14 00:55:00;;;;;;;24.60;3.75;;;8.30;99.90;;;;;;5050614;28;20108;-75
2023/01/14 00:57:25;;;;;;;30.67;3.83;;;8.30;99.90;;;;;;5040978;28;20319;-74
2023/01/14 00:59:51;;;;;;;28.92;4.43;;;8.30;99.90;;;;;;5031954;28;20075;-74
2023/01/14 01:02:16;;;;;;;31.38;3.75;;;8.30;99.90;;;;;;5042536;28;20088;-75
2023/01/14 01:04:42;;;;;;;28.95;3.85;;;8.30;99.90;;;;;;5038968;28;20499;-75
2023/01/14 01:07:08;;;;;;;29.92;4.93;;;8.30;99.90;;;;;;5035637;28;20032;-74
2023/01/14 01:09:33;;;;;;;26.60;4.10;;;8.20;99.90;;;;;;5035602;28;20472;-74
2023/01/14 01:11:59;;;;;;;25.08;4.10;;;8.20;99.90;;;;;;5032126;28;20029;-75
2023/01/14 01:14:24;;;;;;;27.85;4.13;;;8.20;99.90;;;;;;5046967;28;20472;-74
2023/01/14 01:16:50;;;;;;;30.40;4.10;;;8.10;99.90;;;;;;5052667;28;20106;-74
2023/01/14 01:19:16;;;;;;;26.58;4.13;;;8.10;99.90;;;;;;5051827;28;20029;-75
2023/01/14 01:21:41;;;;;;;27.63;3.65;;;8.10;99.90;;;;;;5049142;28;20021;-75
2023/01/14 01:24:07;;;;;;;27.33;3.92;;;8.10;99.90;;;;;;5020875;28;20096;-75
2023/01/14 01:26:33;;;;;;;28.38;3.60;;;8.10;99.90;;;;;;5042565;28;20383;-75
2023/01/14 01:28:58;;;;;;;27.83;3.88;;;8.00;99.90;;;;;;5031330;28;20022;-74
2023/01/14 01:31:26;;;;;;;24.25;3.42;;;8.00;99.90;;;;;;5031914;28;20021;-74
2023/01/14 01:33:52;;;;;;;35.70;3.95;;;7.90;99.90;;;;;;5045432;28;20033;-74
2023/01/14 01:36:21;;;;;;;32.00;4.28;;;7.90;99.90;;;;;;5050199;28;20078;-74
2023/01/14 01:38:47;;;;;;;28.60;3.65;;;7.90;99.90;;;;;;5051679;28;20029;-75
2023/01/14 01:41:15;;;;;;;25.05;4.07;;;7.90;99.90;;;;;;5048582;28;20005;-74
2023/01/14 01:44:00;;;;;;;29.05;4.57;;;7.80;99.90;;;;;;5041814;28;20061;-74
2023/01/14 01:46:26;;;;;;;29.40;3.85;;;7.80;99.90;;;;;;5033850;28;20082;-74
2023/01/14 01:48:52;;;;;;;30.98;3.63;;;7.70;99.90;;;;;;5050916;28;20032;-74
2023/01/14 01:51:25;;;;;;;31.13;4.10;;;7.70;99.90;;;;;;5049339;28;20029;-74
2023/01/14 01:53:53;;;;;;;39.58;4.63;;;7.60;99.90;;;;;;5037478;28;20441;-74
2023/01/14 01:56:22;;;;;;;35.17;4.43;;;7.60;99.90;;;;;;5038403;28;20021;-74
2023/01/14 01:58:50;;;;;;;39.28;4.03;;;7.60;99.90;;;;;;5044612;28;20017;-74
2023/01/14 02:01:16;;;;;;;32.40;4.03;;;7.60;99.90;;;;;;5043605;28;20082;-74
2023/01/14 02:03:43;;;;;;;26.52;3.85;;;7.50;99.90;;;;;;5043376;28;20029;-74
2023/01/14 02:06:10;;;;;;;28.52;4.10;;;7.50;99.90;;;;;;5045173;28;20029;-74
2023/01/14 02:08:39;;;;;;;25.45;4.15;;;7.50;99.90;;;;;;5040045;28;20029;-74
2023/01/14 02:11:22;;;;;;;32.50;4.35;;;7.50;99.90;;;;;;5046055;28;20025;-74
2023/01/14 02:13:59;;;;;;;29.52;4.25;;;7.50;99.90;;;;;;5045917;28;20399;-74
2023/01/14 02:16:38;;;;;;;31.52;4.20;;;7.40;99.90;;;;;;5048616;28;20100;-74
2023/01/14 02:19:39;;;;;;;29.80;4.10;;;7.40;99.90;;;;;;5043748;28;20048;-74
2023/01/14 02:22:42;;;;;;;30.85;4.47;;;7.50;99.90;;;;;;5047618;28;20036;-74
2023/01/14 02:25:43;;;;;;;23.20;3.95;;;7.50;99.90;;;;;;5050459;28;20035;-74
2023/01/14 02:28:27;;;;;;;35.78;3.63;;;7.40;99.90;;;;;;5041123;28;20234;-74
2023/01/14 02:31:03;;;;;;;31.00;4.72;;;7.50;99.90;;;;;;5048789;28;20051;-75
2023/01/14 02:33:46;;;;;;;33.67;4.72;;;7.50;99.90;;;;;;5050528;28;20450;-74
2023/01/14 02:36:29;;;;;;;29.80;3.90;;;7.50;99.90;;;;;;5050789;28;20036;-74
2023/01/14 02:39:05;;;;;;;30.38;4.75;;;7.50;99.90;;;;;;5049942;28;20055;-74
2023/01/14 02:44:43;;;;;;;26.95;4.68;;;7.40;99.90;;;;;;5050434;28;20108;-75
2023/01/14 02:47:14;;;;;;;29.13;4.75;;;7.40;99.90;;;;;;5049805;28;20049;-74
2023/01/14 02:49:44;;;;;;;31.67;4.45;;;7.40;99.90;;;;;;5050283;28;20029;-74
2023/01/14 02:52:11;;;;;;;31.63;4.22;;;7.40;99.90;;;;;;5049144;28;20787;-74
2023/01/14 02:54:37;;;;;;;30.30;4.47;;;7.40;99.90;;;;;;5032965;28;20187;-75
2023/01/14 02:57:35;;;;;;;31.30;4.47;;;7.40;99.90;;;;;;5038816;28;20131;-74
2023/01/14 03:00:22;;;;;;;29.63;4.40;;;7.40;99.90;;;;;;5049915;28;20384;-74
2023/01/14 03:03:11;;;;;;;32.47;4.78;;;7.40;99.90;;;;;;5049442;28;20044;-77
2023/01/14 03:05:58;;;;;;;30.52;4.40;;;7.30;99.90;;;;;;5035462;28;20480;-75
2023/01/14 03:09:00;;;;;;;25.48;4.40;;;7.30;99.90;;;;;;5050400;28;20112;-75
2023/01/14 03:11:36;;;;;;;32.30;4.65;;;7.30;99.90;;;;;;5036240;28;20045;-74
2023/01/14 03:14:08;;;;;;;42.50;4.72;;;7.30;99.90;;;;;;5030685;28;20383;-74
2023/01/14 03:16:44;;;;;;;33.67;5.82;;;7.30;99.90;;;;;;5036623;28;20523;-74
2023/01/14 03:19:42;;;;;;;38.10;4.93;;;7.20;99.90;;;;;;5044961;28;20028;-75
2023/01/14 03:22:08;;;;;;;32.15;5.03;;;7.20;99.90;;;;;;5030668;28;20032;-74
2023/01/14 03:24:43;;;;;;;35.72;4.60;;;7.20;99.90;;;;;;5042852;28;20499;-74
2023/01/14 03:27:19;;;;;;;43.60;5.30;;;7.20;99.90;;;;;;5042460;28;20021;-75
2023/01/14 03:29:50;;;;;;;31.88;5.50;;;7.20;99.90;;;;;;5043977;28;20037;-74
2023/01/14 03:32:29;;;;;;;31.52;4.85;;;7.20;99.90;;;;;;5045525;28;20040;-75
2023/01/14 03:35:05;;;;;;;36.60;5.00;;;7.20;99.90;;;;;;5052350;28;20033;-74
2023/01/14 03:37:31;;;;;;;32.38;5.20;;;7.20;99.90;;;;;;5033895;28;20039;-74
2023/01/14 03:40:01;;;;;;;26.35;4.63;;;7.20;99.90;;;;;;5037564;28;20112;-74
2023/01/14 03:42:34;;;;;;;37.17;5.63;;;7.20;99.90;;;;;;5053272;28;20029;-75
2023/01/14 03:45:03;;;;;;;45.03;6.47;;;7.20;99.90;;;;;;5040739;28;20499;-74
2023/01/14 03:47:31;;;;;;;42.50;6.30;;;7.20;99.90;;;;;;5053963;28;20055;-74
2023/01/14 03:50:00;;;;;;;37.53;6.03;;;7.20;99.90;;;;;;5049491;28;20482;-75
2023/01/14 03:52:56;;;;;;;43.65;5.97;;;7.20;99.90;;;;;;5052624;28;20541;-75
2023/01/14 03:55:26;;;;;;;37.17;6.00;;;7.20;99.90;;;;;;5052902;28;20025;-75
2023/01/14 03:58:18;;;;;;;44.00;6.03;;;7.20;99.90;;;;;;5053487;28;20154;-74
2023/01/14 04:00:55;;;;;;;43.55;6.25;;;7.20;99.90;;;;;;5037015;28;20037;-75
2023/01/14 04:03:21;;;;;;;41.90;7.13;;;7.20;99.90;;;;;;5039883;28;20033;-75
2023/01/14 04:05:47;;;;;;;36.92;6.22;;;7.20;99.90;;;;;;5038371;28;20055;-75
2023/01/14 04:08:13;;;;;;;52.40;7.43;;;7.20;99.90;;;;;;5052273;28;20036;-75
2023/01/14 04:10:39;;;;;;;47.08;6.13;;;7.20;99.90;;;;;;5038489;28;20033;-75
2023/01/14 04:15:49;;;;;;;46.05;7.32;;;7.30;99.90;;;;;;5040941;28;20091;-75
2023/01/14 04:18:14;;;;;;;51.97;7.40;;;7.30;99.90;;;;;;5050838;28;20418;-75
2023/01/14 04:20:40;;;;;;;47.70;7.68;;;7.30;99.90;;;;;;5052166;28;20016;-75
2023/01/14 04:23:05;;;;;;;41.83;6.32;;;7.30;99.90;;;;;;5053556;28;20025;-75
2023/01/14 04:25:31;;;;;;;40.38;6.32;;;7.30;99.90;;;;;;5042378;28;20025;-75
2023/01/14 04:27:57;;;;;;;57.20;6.85;;;7.30;99.90;;;;;;5046555;28;20036;-75
2023/01/14 04:30:22;;;;;;;38.38;6.00;;;7.30;99.90;;;;;;5041746;28;20025;-75
2023/01/14 04:32:48;;;;;;;42.92;6.18;;;7.30;99.90;;;;;;5037901;28;20020;-75
2023/01/14 04:35:13;;;;;;;34.03;5.68;;;7.20;99.90;;;;;;5051237;28;20051;-75
2023/01/14 04:37:39;;;;;;;50.72;6.38;;;7.30;99.90;;;;;;5042134;28;20025;-75
2023/01/14 04:40:05;;;;;;;37.85;6.22;;;7.20;99.90;;;;;;5015547;28;20036;-75
2023/01/14 04:42:31;;;;;;;43.20;5.72;;;7.20;99.90;;;;;;5043389;28;20017;-75
2023/01/14 04:44:59;;;;;;;43.88;5.65;;;7.20;99.90;;;;;;5052438;28;20040;-75
2023/01/14 04:47:25;;;;;;;42.22;6.07;;;7.20;99.90;;;;;;5052465;28;20055;-75
2023/01/14 04:49:51;;;;;;;31.92;5.05;;;7.20;99.90;;;;;;5050872;28;20521;-75
2023/01/14 04:52:17;;;;;;;34.42;5.32;;;7.20;99.90;;;;;;5052517;28;20103;-75
2023/01/14 04:54:42;;;;;;;33.50;5.35;;;7.20;99.90;;;;;;5051973;28;20373;-75
2023/01/14 04:57:08;;;;;;;40.42;6.07;;;7.20;99.90;;;;;;5038394;28;20096;-75
2023/01/14 04:59:34;;;;;;;39.92;4.95;;;7.20;99.90;;;;;;5052477;28;20479;-76
2023/01/14 05:01:59;;;;;;;36.70;5.00;;;7.20;99.90;;;;;;5052152;28;20024;-75
2023/01/14 05:04:26;;;;;;;35.72;5.20;;;7.20;99.90;;;;;;5052578;28;20025;-75
2023/01/14 05:06:52;;;;;;;38.03;5.95;;;7.30;99.90;;;;;;5050692;28;20025;-75
2023/01/14 05:09:18;;;;;;;38.30;4.88;;;7.30;99.90;;;;;;5051956;28;20021;-75
2023/01/14 05:11:44;;;;;;;34.95;5.03;;;7.30;99.90;;;;;;5052434;28;20025;-75
2023/01/14 05:14:09;;;;;;;35.63;4.43;;;7.30;99.90;;;;;;5049822;28;20067;-75
2023/01/14 05:16:35;;;;;;;41.03;5.65;;;7.30;99.90;;;;;;5033965;28;20027;-75
2023/01/14 05:19:00;;;;;;;33.72;4.93;;;7.30;99.90;;;;;;5035639;28;20219;-75
2023/01/14 05:21:26;;;;;;;31.40;4.68;;;7.30;99.90;;;;;;5052053;28;20371;-75
2023/01/14 05:23:52;;;;;;;28.23;4.43;;;7.30;99.90;;;;;;5047315;28;20036;-75
2023/01/14 05:26:17;;;;;;;37.25;4.75;;;7.40;99.90;;;;;;5045712;28;20021;-75
2023/01/14 05:28:43;;;;;;;22.98;4.07;;;7.40;99.90;;;;;;5032209;28;20384;-75
2023/01/14 05:31:09;;;;;;;30.75;4.00;;;7.40;99.90;;;;;;5031933;28;20036;-75
2023/01/14 05:33:34;;;;;;;37.85;5.22;;;7.40;99.90;;;;;;5048009;28;20036;-75
2023/01/14 05:36:01;;;;;;;40.55;4.38;;;7.40;99.90;;;;;;5047674;28;20024;-75
2023/01/14 05:38:27;;;;;;;34.22;4.88;;;7.40;99.90;;;;;;5047105;28;20044;-75
2023/01/14 05:40:53;;;;;;;27.55;4.72;;;7.40;99.90;;;;;;5049107;28;20033;-75
2023/01/14 05:46:09;;;;;;;35.40;4.30;;;7.50;99.90;;;;;;5051500;28;20047;-75
2023/01/14 05:48:35;;;;;;;38.25;4.95;;;7.50;99.90;;;;;;5050751;28;20301;-76
2023/01/14 05:51:02;;;;;;;25.92;4.55;;;7.40;99.90;;;;;;5050636;28;20024;-75
2023/01/14 05:53:28;;;;;;;31.58;4.55;;;7.50;99.90;;;;;;5049109;28;20052;-75
2023/01/14 05:55:56;;;;;;;32.88;4.60;;;7.40;99.90;;;;;;5049524;28;20017;-75
2023/01/14 05:58:22;;;;;;;37.50;5.45;;;7.50;99.90;;;;;;5049459;28;20056;-75
2023/01/14 06:06:30;;;;;;;24.35;3.38;;;7.40;99.90;;;;;;5038506;28;20090;-75
2023/01/14 06:08:58;;;;;;;30.35;4.85;;;7.40;99.90;;;;;;5049900;28;20037;-75
2023/01/14 06:11:25;;;;;;;35.30;5.20;;;7.40;99.90;;;;;;5034725;28;20073;-75
2023/01/14 06:13:54;;;;;;;31.17;4.45;;;7.40;99.90;;;;;;5047738;28;20021;-75
2023/01/14 06:16:20;;;;;;;34.92;5.03;;;7.40;99.90;;;;;;5049799;28;20380;-75
2023/01/14 06:18:46;;;;;;;30.90;4.38;;;7.40;99.90;;;;;;5030973;28;20033;-75
2023/01/14 06:21:18;;;;;;;33.50;4.00;;;7.40;99.90;;;;;;5034937;28;20025;-75
2023/01/14 06:23:45;;;;;;;29.83;3.72;;;7.40;99.90;;;;;;5041272;28;20021;-75
2023/01/14 06:26:12;;;;;;;41.72;4.80;;;7.40;99.90;;;;;;5039513;28;20014;-76
2023/01/14 06:28:38;;;;;;;31.83;4.80;;;7.40;99.90;;;;;;5033472;28;20037;-76
2023/01/14 06:31:22;;;;;;;32.22;4.03;;;7.40;99.90;;;;;;5033473;28;20030;-75
2023/01/14 06:33:48;;;;;;;27.85;3.90;;;7.40;99.90;;;;;;5030227;28;20025;-75
2023/01/14 06:36:14;;;;;;;29.02;4.30;;;7.50;99.90;;;;;;5031279;28;20029;-75
2023/01/14 06:38:41;;;;;;;23.40;3.78;;;7.40;99.90;;;;;;5034543;28;20495;-76
2023/01/14 06:41:09;;;;;;;30.77;4.00;;;7.40;99.90;;;;;;5037201;28;20017;-75
2023/01/14 06:43:35;;;;;;;26.33;4.82;;;7.40;99.90;;;;;;5039319;28;20056;-74
2023/01/14 06:46:01;;;;;;;30.38;4.78;;;7.40;99.90;;;;;;5031477;28;20032;-76
2023/01/14 06:48:27;;;;;;;26.92;4.72;;;7.40;99.90;;;;;;5033171;28;20053;-76
2023/01/14 06:50:54;;;;;;;33.65;4.93;;;7.40;99.90;;;;;;5039436;28;20358;-76
2023/01/14 06:53:20;;;;;;;26.80;4.18;;;7.40;99.90;;;;;;5039618;28;20119;-77
2023/01/14 06:55:46;;;;;;;34.15;4.95;;;7.40;99.90;;;;;;5033257;28;20017;-76
2023/01/14 06:58:11;;;;;;;25.65;4.47;;;7.40;99.90;;;;;;5034280;28;20108;-76
2023/01/14 07:00:37;;;;;;;32.53;4.50;;;7.40;99.90;;;;;;5032754;28;20514;-77
2023/01/14 07:03:03;;;;;;;27.40;4.90;;;7.30;99.90;;;;;;5041615;28;20036;-76
2023/01/14 07:05:29;;;;;;;25.45;4.30;;;7.30;99.90;;;;;;5048513;28;20033;-76
2023/01/14 07:07:55;;;;;;;19.85;4.38;;;7.30;99.90;;;;;;5050123;28;20514;-76
2023/01/14 07:10:21;;;;;;;33.80;5.18;;;7.40;99.90;;;;;;5035459;28;20022;-76
2023/01/14 07:12:48;;;;;;;28.98;4.68;;;7.30;99.90;;;;;;5038137;28;20055;-76
2023/01/14 07:15:16;;;;;;;34.72;5.25;;;7.30;99.90;;;;;;5049673;28;20029;-76
2023/01/14 07:17:45;;;;;;;27.98;5.30;;;7.30;99.90;;;;;;5050110;28;20040;-76
2023/01/14 07:20:11;;;;;;;31.88;6.18;;;7.30;99.90;;;;;;5030168;28;20159;-77
2023/01/14 07:22:36;;;;;;;29.60;5.60;;;7.30;99.90;;;;;;5034402;28;20037;-74
2023/01/14 07:25:03;;;;;;;27.00;5.82;;;7.30;99.90;;;;;;5035724;28;20110;-73
2023/01/14 07:27:29;;;;;;;22.58;5.10;;;7.30;99.90;;;;;;5036962;28;20510;-74
2023/01/14 07:29:56;;;;;;;21.80;5.22;;;7.30;99.90;;;;;;5046929;28;20025;-74
2023/01/14 07:32:21;;;;;;;26.50;5.75;;;7.30;99.90;;;;;;5040699;28;20101;-74
2023/01/14 07:34:47;;;;;;;30.92;6.00;;;7.30;99.90;;;;;;5049346;28;20056;-74
2023/01/14 07:37:13;;;;;;;30.42;6.13;;;7.30;99.90;;;;;;5043176;28;20026;-74
2023/01/14 07:39:38;;;;;;;24.05;5.90;;;7.30;99.90;;;;;;5049646;28;20387;-74
2023/01/14 07:42:04;;;;;;;21.75;5.38;;;7.30;99.90;;;;;;5048705;28;20025;-74
2023/01/14 07:44:31;;;;;;;18.60;5.45;;;7.30;99.90;;;;;;5048666;28;20463;-74
2023/01/14 07:46:57;;;;;;;25.92;5.53;;;7.30;99.90;;;;;;5035258;28;20128;-74
2023/01/14 07:49:23;;;;;;;22.35;5.78;;;7.30;99.90;;;;;;5049443;28;20104;-75
2023/01/14 07:51:50;;;;;;;27.40;6.53;;;7.40;99.90;;;;;;5031949;28;20030;-75
2023/01/14 07:54:17;;;;;;;21.77;6.00;;;7.30;99.90;;;;;;5038482;28;20154;-74
2023/01/14 07:56:43;;;;;;;21.17;5.55;;;7.40;99.90;;;;;;5048100;28;20025;-74
2023/01/14 07:59:08;;;;;;;18.45;6.05;;;7.40;99.90;;;;;;5049324;28;20021;-74
2023/01/14 08:01:34;;;;;;;16.90;5.75;;;7.40;99.90;;;;;;5036296;28;20561;-74
2023/01/14 08:04:00;;;;;;;17.05;6.05;;;7.40;99.90;;;;;;5029663;28;20040;-73
2023/01/14 08:06:26;;;;;;;18.05;6.03;;;7.50;99.90;;;;;;5036904;28;20025;-74
2023/01/14 08:08:52;;;;;;;22.00;6.13;;;7.50;99.90;;;;;;5043771;28;20060;-74
2023/01/14 08:11:17;;;;;;;15.82;6.57;;;7.50;99.90;;;;;;5042677;28;20382;-74
2023/01/14 08:13:43;;;;;;;16.80;6.18;;;7.60;99.90;;;;;;5042803;28;20098;-74
2023/01/14 08:16:09;;;;;;;15.40;6.20;;;7.60;99.90;;;;;;5048490;28;20031;-75
2023/01/14 08:18:38;;;;;;;17.15;6.53;;;7.70;99.90;;;;;;5047471;28;20092;-76
2023/01/14 08:21:06;;;;;;;11.63;5.63;;;7.70;99.90;;;;;;5033397;28;20388;-75
2023/01/14 08:23:33;;;;;;;16.85;6.70;;;7.80;99.90;;;;;;5033067;28;20341;-75
2023/01/14 08:26:00;;;;;;;15.68;6.22;;;7.80;99.90;;;;;;5038388;28;20029;-75
2023/01/14 08:28:26;;;;;;;16.35;6.05;;;7.80;99.90;;;;;;5052900;28;20124;-75
2023/01/14 08:31:01;;;;;;;15.38;5.75;;;7.90;99.90;;;;;;5044674;28;20117;-74
2023/01/14 08:33:26;;;;;;;14.68;5.72;;;8.00;99.90;;;;;;5051998;28;20027;-74
2023/01/14 08:35:52;;;;;;;13.65;5.68;;;8.00;99.90;;;;;;5049580;28;20022;-75
2023/01/14 08:38:17;;;;;;;16.48;6.35;;;8.00;99.90;;;;;;5044784;28;20111;-75
2023/01/14 08:40:43;;;;;;;18.45;6.13;;;8.10;99.90;;;;;;5034873;28;20075;-71
2023/01/14 08:43:09;;;;;;;14.38;5.97;;;8.10;99.90;;;;;;5039111;28;20045;-72
2023/01/14 08:45:34;;;;;;;18.02;6.25;;;8.20;99.90;;;;;;5035341;28;20034;-72
2023/01/14 08:48:00;;;;;;;13.57;5.70;;;8.20;99.90;;;;;;5045975;28;20088;-72
2023/01/14 08:50:25;;;;;;;14.18;4.90;;;8.20;99.90;;;;;;5047552;28;20056;-72
2023/01/14 08:52:51;;;;;;;14.70;5.25;;;8.20;99.90;;;;;;5048123;28;20060;-72
2023/01/14 08:55:17;;;;;;;11.32;4.13;;;8.20;99.90;;;;;;5041860;28;20032;-72
2023/01/14 08:57:42;;;;;;;15.18;4.15;;;8.30;99.90;;;;;;5051243;28;20369;-74
2023/01/14 09:00:09;;;;;;;15.13;4.13;;;8.30;99.90;;;;;;5042497;28;20455;-74
2023/01/14 09:02:35;;;;;;;13.57;5.10;;;8.30;99.90;;;;;;5051454;28;20048;-73
2023/01/14 09:05:01;;;;;;;10.52;4.20;;;8.40;99.90;;;;;;5051292;28;20357;-73
2023/01/14 09:18:24;;;;;;;16.63;4.00;;;8.40;99.90;;;;;;5049974;28;20183;-75
2023/01/14 09:20:50;;;;;;;17.20;4.22;;;8.50;99.90;;;;;;5032091;28;20108;-75
2023/01/14 09:23:15;;;;;;;15.10;4.30;;;8.50;99.90;;;;;;5038318;28;20020;-74
2023/01/14 09:25:41;;;;;;;16.80;4.47;;;8.50;99.90;;;;;;5044257;28;20056;-75
2023/01/14 09:28:07;;;;;;;14.73;3.55;;;8.50;99.90;;;;;;5048789;28;20055;-74
2023/01/14 09:30:33;;;;;;;14.25;3.72;;;8.50;99.90;;;;;;5042398;28;20021;-74
2023/01/14 09:32:59;;;;;;;14.27;3.50;;;8.50;99.90;;;;;;5051184;28;20151;-75
2023/01/14 09:35:25;;;;;;;16.80;3.50;;;8.50;99.90;;;;;;5040204;28;20021;-75
2023/01/14 09:37:50;;;;;;;15.63;3.53;;;8.60;99.90;;;;;;5043988;28;20032;-74
2023/01/14 09:40:17;;;;;;;17.58;4.07;;;8.60;99.90;;;;;;5044685;28;20032;-74
2023/01/14 09:42:48;;;;;;;15.68;3.42;;;8.60;99.90;;;;;;5026687;28;20032;-74
2023/01/14 09:45:26;;;;;;;18.67;3.40;;;8.60;99.90;;;;;;5050219;28;20057;-74
2023/01/14 09:47:52;;;;;;;10.27;2.60;;;8.60;99.90;;;;;;5038462;28;20050;-74
2023/01/14 09:50:31;;;;;;;12.52;2.80;;;8.60;99.90;;;;;;5049966;28;20360;-74
2023/01/14 09:53:05;;;;;;;10.60;2.80;;;8.60;99.90;;;;;;5050409;28;20036;-74
2023/01/14 09:55:40;;;;;;;7.95;2.78;;;8.70;99.90;;;;;;5050379;28;20028;-74
2023/01/14 09:58:20;;;;;;;8.85;2.22;;;8.70;99.90;;;;;;5052704;28;20025;-74
2023/01/14 10:00:49;;;;;;;12.00;2.55;;;8.70;99.90;;;;;;5045004;28;20025;-74
2023/01/14 10:03:46;;;;;;;10.15;2.47;;;8.80;99.90;;;;;;5043910;28;20028;-74
2023/01/14 10:06:17;;;;;;;11.07;2.78;;;8.80;99.90;;;;;;5040455;28;20028;-74
2023/01/14 10:08:56;;;;;;;8.30;2.42;;;8.80;99.90;;;;;;5049892;28;20021;-74
2023/01/14 10:11:25;;;;;;;18.10;3.00;;;8.80;99.90;;;;;;5032806;28;20472;-74
2023/01/14 10:14:15;;;;;;;9.18;3.13;;;8.90;99.90;;;;;;5033473;28;20109;-74
2023/01/14 10:16:44;;;;;;;10.20;3.05;;;8.90;99.90;;;;;;5050851;28;20051;-74
2023/01/14 10:19:24;;;;;;;9.60;2.70;;;8.90;99.90;;;;;;5049505;28;20035;-71
2023/01/14 10:21:59;;;;;;;9.73;2.78;;;9.00;99.90;;;;;;5050119;28;20116;-74
2023/01/14 10:24:25;;;;;;;13.10;2.50;;;9.00;99.90;;;;;;5037271;28;20021;-73
2023/01/14 10:26:51;;;;;;;6.07;2.33;;;9.10;99.90;;;;;;5049859;28;20040;-74
2023/01/14 10:29:23;;;;;;;10.68;2.15;;;9.10;99.90;;;;;;5050249;28;20040;-74
2023/01/14 10:32:00;;;;;;;7.72;2.40;;;9.10;99.90;;;;;;5049823;28;20021;-74
2023/01/14 10:34:27;;;;;;;10.13;2.25;;;9.10;99.90;;;;;;5050422;28;20029;-75
2023/01/14 10:36:53;;;;;;;6.95;2.25;;;9.10;99.90;;;;;;5031961;28;20018;-75
2023/01/14 10:39:19;;;;;;;8.25;2.45;;;9.10;99.90;;;;;;5043365;28;20127;-74
2023/01/14 10:41:50;;;;;;;7.70;2.10;;;9.20;99.90;;;;;;5048652;28;20075;-74
2023/01/14 10:44:28;;;;;;;5.43;1.83;;;9.20;99.90;;;;;;5047187;28;20101;-74
2023/01/14 10:46:57;;;;;;;8.85;2.17;;;9.20;99.90;;;;;;5038473;28;20095;-74
2023/01/14 10:49:33;;;;;;;7.47;2.50;;;9.30;99.90;;;;;;5049773;28;20021;-74
2023/01/14 10:51:59;;;;;;;9.85;2.55;;;9.30;99.90;;;;;;5043507;28;20395;-74
2023/01/14 10:54:27;;;;;;;10.32;2.42;;;9.30;99.90;;;;;;5044925;28;20101;-74
2023/01/14 10:56:59;;;;;;;7.40;2.28;;;9.30;99.90;;;;;;5046801;28;20068;-74
2023/01/14 10:59:28;;;;;;;6.35;2.40;;;9.40;99.90;;;;;;5046314;28;20152;-74
2023/01/14 11:01:55;;;;;;;12.07;2.70;;;9.40;99.90;;;;;;5044842;28;20033;-74
2023/01/14 11:04:25;;;;;;;9.05;2.55;;;9.40;99.90;;;;;;5044533;28;20423;-74
2023/01/14 11:06:51;;;;;;;8.90;2.58;;;9.50;99.90;;;;;;5039180;28;20030;-74
2023/01/14 11:09:20;;;;;;;8.98;2.60;;;9.50;99.90;;;;;;5049137;28;20031;-73
2023/01/14 11:11:46;;;;;;;12.27;3.13;;;9.60;99.90;;;;;;5031764;28;20036;-74
2023/01/14 11:14:24;;;;;;;7.57;2.63;;;9.70;99.90;;;;;;5043582;28;20104;-74
2023/01/14 11:16:50;;;;;;;9.20;3.20;;;9.70;99.90;;;;;;5049732;28;20025;-74
2023/01/14 11:19:16;;;;;;;9.23;2.92;;;9.70;99.90;;;;;;5049612;28;20029;-74
2023/01/14 11:21:44;;;;;;;9.63;2.83;;;9.70;99.90;;;;;;5050005;28;20021;-73
2023/01/14 11:24:37;;;;;;;8.02;2.58;;;9.80;99.90;;;;;;5034989;28;20025;-74
2023/01/14 11:27:04;;;;;;;7.53;2.53;;;9.70;99.90;;;;;;5039509;28;20437;-73
2023/01/14 11:29:36;;;;;;;6.95;2.75;;;9.80;99.90;;;;;;5048779;28;20079;-73
2023/01/14 11:32:11;;;;;;;7.20;2.80;;;9.80;99.90;;;;;;5042247;28;20032;-74
2023/01/14 11:34:50;;;;;;;7.53;2.50;;;9.80;99.90;;;;;;5044623;28;20091;-74
2023/01/14 11:37:20;;;;;;;8.07;2.65;;;9.80;99.90;;;;;;5050654;28;20021;-74
2023/01/14 11:40:00;;;;;;;7.35;2.70;;;9.90;99.90;;;;;;5036976;28;20098;-73
2023/01/14 11:42:40;;;;;;;5.93;2.80;;;9.90;99.90;;;;;;5048956;28;20249;-74
2023/01/14 11:45:11;;;;;;;8.68;2.20;;;10.00;99.90;;;;;;5031331;28;20021;-73
2023/01/14 11:47:54;;;;;;;7.47;2.70;;;10.00;99.90;;;;;;5048538;28;20041;-74
2023/01/14 11:50:25;;;;;;;6.18;2.00;;;10.00;99.90;;;;;;5047657;28;20112;-73
2023/01/14 11:53:26;;;;;;;7.85;2.50;;;10.00;99.90;;;;;;5051169;28;20078;-73
2023/01/14 11:55:55;;;;;;;6.40;2.20;;;10.00;99.90;;;;;;4998798;28;20179;-73
2023/01/14 11:58:25;;;;;;;10.20;2.30;;;10.00;99.90;;;;;;5052934;28;20441;-74
2023/01/14 12:01:04;;;;;;;6.50;2.10;;;10.00;99.90;;;;;;5053012;28;20396;-73
2023/01/14 12:03:47;;;;;;;5.55;1.90;;;10.10;99.90;;;;;;5052123;28;20154;-73
2023/01/14 12:06:20;;;;;;;7.03;1.95;;;10.10;99.90;;;;;;5053432;28;20104;-74
2023/01/14 12:08:52;;;;;;;6.47;2.13;;;10.10;99.90;;;;;;5051314;28;20053;-74
2023/01/14 12:11:23;;;;;;;5.15;2.10;;;10.10;99.90;;;;;;5035735;28;20025;-74
2023/01/14 12:17:01;;;;;;;7.90;2.03;;;10.20;99.90;;;;;;5053236;28;20040;-73
2023/01/14 12:19:49;;;;;;;5.50;1.77;;;10.20;99.90;;;;;;5037642;28;20447;-74
2023/01/14 12:22:26;;;;;;;7.57;1.92;;;10.20;99.90;;;;;;5050192;28;20395;-74
2023/01/14 12:25:04;;;;;;;5.45;1.70;;;10.20;99.90;;;;;;5053126;28;20025;-73
2023/01/14 12:27:44;;;;;;;4.55;1.52;;;10.20;99.90;;;;;;5040331;28;20560;-73
2023/01/14 12:30:36;;;;;;;8.35;1.92;;;10.30;99.90;;;;;;5037772;28;20079;-73
2023/01/14 12:33:08;;;;;;;3.58;1.63;;;10.30;99.90;;;;;;5044674;28;20029;-73
2023/01/14 12:35:45;;;;;;;9.05;1.70;;;10.40;99.90;;;;;;5052534;28;20108;-72
2023/01/14 12:46:33;;;;;;;5.72;1.73;;;10.40;99.90;;;;;;5048139;28;20110;-72
2023/01/14 12:48:59;;;;;;;3.72;1.50;;;10.40;99.90;;;;;;5045252;28;20029;-73
2023/01/14 12:51:33;;;;;;;5.60;1.75;;;10.50;99.90;;;;;;5045967;28;20099;-73
2023/01/14 12:54:03;;;;;;;5.68;1.98;;;10.50;99.90;;;;;;5031819;28;20392;-72
2023/01/14 12:56:32;;;;;;;5.80;1.90;;;10.50;99.90;;;;;;5045617;28;20485;-73
2023/01/14 12:59:01;;;;;;;3.97;1.85;;;10.60;99.90;;;;;;5050744;28;20017;-71
2023/01/14 13:01:49;;;;;;;6.45;1.95;;;10.60;99.90;;;;;;5052350;28;20539;-72
2023/01/14 13:04:22;;;;;;;9.98;2.05;;;10.60;99.90;;;;;;5050941;28;20476;-73
2023/01/14 13:07:03;;;;;;;4.80;1.80;;;10.60;99.90;;;;;;5051606;28;20040;-72
2023/01/14 13:09:37;;;;;;;4.97;1.75;;;10.60;99.90;;;;;;5039751;28;20443;-73
2023/01/14 13:12:03;;;;;;;6.00;1.73;;;10.60;99.90;;;;;;5037512;28;20025;-73
2023/01/14 13:14:38;;;;;;;4.15;1.52;;;10.60;99.90;;;;;;5045873;28;20128;-73
2023/01/14 13:17:32;;;;;;;6.78;1.98;;;10.60;99.90;;;;;;5049840;28;20155;-73
2023/01/14 13:19:59;;;;;;;5.40;1.98;;;10.60;99.90;;;;;;5037637;28;20128;-73
2023/01/14 13:22:45;;;;;;;6.95;1.90;;;10.60;99.90;;;;;;5039006;28;20117;-73
2023/01/14 13:25:37;;;;;;;4.13;1.90;;;10.60;99.90;;;;;;5034378;28;20086;-74
2023/01/14 13:28:11;;;;;;;4.50;2.00;;;10.70;99.90;;;;;;5027192;28;20021;-74
2023/01/14 13:30:48;;;;;;;2.25;1.80;;;10.60;99.90;;;;;;5041779;28;20099;-73
2023/01/14 13:33:16;;;;;;;4.07;1.70;;;10.70;99.90;;;;;;5050219;28;20391;-73
2023/01/14 13:36:02;;;;;;;3.05;1.55;;;10.70;99.90;;;;;;5051881;28;20025;-74
2023/01/14 13:38:31;;;;;;;4.82;1.55;;;10.70;99.90;;;;;;5038625;28;20094;-74
2023/01/14 13:41:06;;;;;;;3.17;1.77;;;10.80;99.90;;;;;;5051256;28;20025;-73